sensor_id;sensor_type;location;lat;lon;timestamp;P1;durP1;ratioP1;P2;durP2;ratioP2
16450;SDS011;12243;42.708;23.310;2023-03-23T00:01:00;56.43;;;38.50;;
16450;SDS011;12243;42.708;23.310;2023-03-23T00:03:28;62.53;;;39.00;;
16450;SDS011;12243;42.708;23.310;2023-03-23T00:05:56;57.33;;;38.27;;
16450;SDS011;12243;42.708;23.310;2023-03-23T00:08:30;55.57;;;38.37;;
16450;SDS011;12243;42.708;23.310;2023-03-23T00:10:57;56.43;;;39.43;;
16450;SDS011;12243;42.708;23.310;2023-03-23T00:13:28;61.37;;;39.47;;
16450;SDS011;12243;42.708;23.310;2023-03-23T00:15:55;57.43;;;36.60;;
16450;SDS011;12243;42.708;23.310;2023-03-23T00:18:25;56.23;;;38.83;;
16450;SDS011;12243;42.708;23.310;2023-03-23T00:20:53;53.17;;;37.23;;
16450;SDS011;12243;42.708;23.310;2023-03-23T00:23:22;53.87;;;37.43;;
16450;SDS011;12243;42.708;23.310;2023-03-23T00:25:51;53.77;;;36.47;;
16450;SDS011;12243;42.708;23.310;2023-03-23T00:28:22;50.63;;;35.73;;
16450;SDS011;12243;42.708;23.310;2023-03-23T00:30:56;50.33;;;35.77;;
16450;SDS011;12243;42.708;23.310;2023-03-23T00:33:24;54.73;;;37.43;;
16450;SDS011;12243;42.708;23.310;2023-03-23T00:35:52;50.83;;;35.90;;
16450;SDS011;12243;42.708;23.310;2023-03-23T00:38:20;50.97;;;33.50;;
16450;SDS011;12243;42.708;23.310;2023-03-23T00:40:47;46.37;;;33.03;;
16450;SDS011;12243;42.708;23.310;2023-03-23T00:43:18;46.07;;;32.07;;
16450;SDS011;12243;42.708;23.310;2023-03-23T00:45:50;42.40;;;31.93;;
16450;SDS011;12243;42.708;23.310;2023-03-23T00:48:20;45.17;;;31.73;;
16450;SDS011;12243;42.708;23.310;2023-03-23T00:50:47;45.33;;;32.00;;
16450;SDS011;12243;42.708;23.310;2023-03-23T00:53:14;43.70;;;30.30;;
16450;SDS011;12243;42.708;23.310;2023-03-23T00:55:42;47.03;;;31.17;;
16450;SDS011;12243;42.708;23.310;2023-03-23T00:58:10;45.07;;;31.93;;
16450;SDS011;12243;42.708;23.310;2023-03-23T01:00:37;46.10;;;31.43;;
16450;SDS011;12243;42.708;23.310;2023-03-23T01:03:05;47.90;;;30.70;;
16450;SDS011;12243;42.708;23.310;2023-03-23T01:05:35;42.67;;;29.60;;
16450;SDS011;12243;42.708;23.310;2023-03-23T01:08:03;42.07;;;29.07;;
16450;SDS011;12243;42.708;23.310;2023-03-23T01:10:31;41.27;;;28.83;;
16450;SDS011;12243;42.708;23.310;2023-03-23T01:12:58;41.13;;;29.77;;
16450;SDS011;12243;42.708;23.310;2023-03-23T01:15:26;37.67;;;28.93;;
16450;SDS011;12243;42.708;23.310;2023-03-23T01:17:54;42.93;;;29.27;;
16450;SDS011;12243;42.708;23.310;2023-03-23T01:20:22;40.10;;;29.47;;
16450;SDS011;12243;42.708;23.310;2023-03-23T01:22:51;38.40;;;29.33;;
16450;SDS011;12243;42.708;23.310;2023-03-23T01:25:25;38.77;;;28.80;;
16450;SDS011;12243;42.708;23.310;2023-03-23T01:27:53;42.10;;;30.40;;
16450;SDS011;12243;42.708;23.310;2023-03-23T01:30:20;42.07;;;30.13;;
16450;SDS011;12243;42.708;23.310;2023-03-23T01:32:47;43.80;;;30.73;;
16450;SDS011;12243;42.708;23.310;2023-03-23T01:35:14;43.50;;;29.83;;
16450;SDS011;12243;42.708;23.310;2023-03-23T01:37:41;44.90;;;32.33;;
16450;SDS011;12243;42.708;23.310;2023-03-23T01:40:10;43.63;;;31.80;;
16450;SDS011;12243;42.708;23.310;2023-03-23T01:42:38;44.90;;;31.60;;
16450;SDS011;12243;42.708;23.310;2023-03-23T01:47:55;50.60;;;34.83;;
16450;SDS011;12243;42.708;23.310;2023-03-23T01:50:29;51.23;;;35.00;;
16450;SDS011;12243;42.708;23.310;2023-03-23T01:53:02;45.93;;;33.73;;
16450;SDS011;12243;42.708;23.310;2023-03-23T01:55:36;47.97;;;34.03;;
16450;SDS011;12243;42.708;23.310;2023-03-23T01:58:06;49.97;;;33.87;;
16450;SDS011;12243;42.708;23.310;2023-03-23T02:00:38;50.23;;;33.17;;
16450;SDS011;12243;42.708;23.310;2023-03-23T02:03:08;52.90;;;33.03;;
16450;SDS011;12243;42.708;23.310;2023-03-23T02:05:40;48.67;;;32.93;;
16450;SDS011;12243;42.708;23.310;2023-03-23T02:08:13;44.42;;;29.98;;
16450;SDS011;12243;42.708;23.310;2023-03-23T02:10:45;49.80;;;32.63;;
16450;SDS011;12243;42.708;23.310;2023-03-23T02:13:12;46.00;;;31.97;;
16450;SDS011;12243;42.708;23.310;2023-03-23T02:15:45;49.50;;;33.47;;
16450;SDS011;12243;42.708;23.310;2023-03-23T02:18:31;52.83;;;33.37;;
16450;SDS011;12243;42.708;23.310;2023-03-23T02:21:13;51.17;;;33.30;;
16450;SDS011;12243;42.708;23.310;2023-03-23T02:24:00;49.37;;;33.83;;
16450;SDS011;12243;42.708;23.310;2023-03-23T02:26:53;50.90;;;31.77;;
16450;SDS011;12243;42.708;23.310;2023-03-23T02:29:37;47.27;;;31.03;;
16450;SDS011;12243;42.708;23.310;2023-03-23T02:35:44;45.67;;;30.43;;
16450;SDS011;12243;42.708;23.310;2023-03-23T02:38:17;47.87;;;30.13;;
16450;SDS011;12243;42.708;23.310;2023-03-23T02:40:49;41.13;;;30.03;;
16450;SDS011;12243;42.708;23.310;2023-03-23T02:43:18;44.70;;;31.60;;
16450;SDS011;12243;42.708;23.310;2023-03-23T02:45:50;47.67;;;31.87;;
16450;SDS011;12243;42.708;23.310;2023-03-23T02:48:20;42.37;;;30.73;;
16450;SDS011;12243;42.708;23.310;2023-03-23T02:50:51;41.63;;;29.63;;
16450;SDS011;12243;42.708;23.310;2023-03-23T02:53:20;34.07;;;25.03;;
16450;SDS011;12243;42.708;23.310;2023-03-23T02:55:53;29.27;;;21.33;;
16450;SDS011;12243;42.708;23.310;2023-03-23T02:58:26;26.40;;;20.80;;
16450;SDS011;12243;42.708;23.310;2023-03-23T03:00:54;31.27;;;20.37;;
16450;SDS011;12243;42.708;23.310;2023-03-23T03:03:23;26.57;;;20.60;;
16450;SDS011;12243;42.708;23.310;2023-03-23T03:05:56;27.90;;;20.37;;
16450;SDS011;12243;42.708;23.310;2023-03-23T03:08:33;24.83;;;19.13;;
16450;SDS011;12243;42.708;23.310;2023-03-23T03:11:07;21.50;;;16.03;;
16450;SDS011;12243;42.708;23.310;2023-03-23T03:13:41;18.27;;;13.67;;
16450;SDS011;12243;42.708;23.310;2023-03-23T03:16:14;18.20;;;14.40;;
16450;SDS011;12243;42.708;23.310;2023-03-23T03:18:54;16.23;;;12.40;;
16450;SDS011;12243;42.708;23.310;2023-03-23T03:21:27;14.60;;;12.17;;
16450;SDS011;12243;42.708;23.310;2023-03-23T03:23:58;15.90;;;12.33;;
16450;SDS011;12243;42.708;23.310;2023-03-23T03:26:28;16.97;;;14.10;;
16450;SDS011;12243;42.708;23.310;2023-03-23T03:29:13;20.30;;;16.37;;
16450;SDS011;12243;42.708;23.310;2023-03-23T03:31:46;17.27;;;15.37;;
16450;SDS011;12243;42.708;23.310;2023-03-23T03:34:17;27.27;;;16.70;;
16450;SDS011;12243;42.708;23.310;2023-03-23T03:36:47;25.00;;;16.47;;
16450;SDS011;12243;42.708;23.310;2023-03-23T03:39:16;16.67;;;14.67;;
16450;SDS011;12243;42.708;23.310;2023-03-23T03:41:46;20.03;;;15.93;;
16450;SDS011;12243;42.708;23.310;2023-03-23T03:44:13;18.33;;;15.23;;
16450;SDS011;12243;42.708;23.310;2023-03-23T03:46:41;19.13;;;13.97;;
16450;SDS011;12243;42.708;23.310;2023-03-23T03:49:09;16.80;;;13.23;;
16450;SDS011;12243;42.708;23.310;2023-03-23T03:51:41;15.13;;;13.30;;
16450;SDS011;12243;42.708;23.310;2023-03-23T03:54:16;18.13;;;13.73;;
16450;SDS011;12243;42.708;23.310;2023-03-23T03:56:43;18.63;;;14.37;;
16450;SDS011;12243;42.708;23.310;2023-03-23T03:59:29;15.43;;;13.70;;
16450;SDS011;12243;42.708;23.310;2023-03-23T04:02:16;16.77;;;13.93;;
16450;SDS011;12243;42.708;23.310;2023-03-23T04:04:46;17.03;;;14.87;;
16450;SDS011;12243;42.708;23.310;2023-03-23T04:07:15;17.63;;;14.47;;
16450;SDS011;12243;42.708;23.310;2023-03-23T04:09:42;20.40;;;15.13;;
16450;SDS011;12243;42.708;23.310;2023-03-23T04:12:12;17.07;;;15.07;;
16450;SDS011;12243;42.708;23.310;2023-03-23T04:15:09;18.03;;;15.07;;
16450;SDS011;12243;42.708;23.310;2023-03-23T04:17:36;19.67;;;14.53;;
16450;SDS011;12243;42.708;23.310;2023-03-23T04:20:07;21.23;;;14.43;;
16450;SDS011;12243;42.708;23.310;2023-03-23T04:22:39;19.77;;;14.90;;
16450;SDS011;12243;42.708;23.310;2023-03-23T04:25:09;18.23;;;14.83;;
16450;SDS011;12243;42.708;23.310;2023-03-23T04:27:39;18.47;;;14.80;;
16450;SDS011;12243;42.708;23.310;2023-03-23T04:30:10;17.73;;;14.57;;
16450;SDS011;12243;42.708;23.310;2023-03-23T04:32:42;20.33;;;16.00;;
16450;SDS011;12243;42.708;23.310;2023-03-23T04:35:13;25.83;;;19.10;;
16450;SDS011;12243;42.708;23.310;2023-03-23T04:37:48;24.03;;;17.70;;
16450;SDS011;12243;42.708;23.310;2023-03-23T04:40:18;26.93;;;20.07;;
16450;SDS011;12243;42.708;23.310;2023-03-23T04:42:57;30.27;;;21.50;;
16450;SDS011;12243;42.708;23.310;2023-03-23T04:45:40;24.03;;;17.83;;
16450;SDS011;12243;42.708;23.310;2023-03-23T04:48:12;18.57;;;16.03;;
16450;SDS011;12243;42.708;23.310;2023-03-23T04:50:49;19.07;;;15.50;;
16450;SDS011;12243;42.708;23.310;2023-03-23T04:53:25;19.20;;;15.57;;
16450;SDS011;12243;42.708;23.310;2023-03-23T04:55:52;23.03;;;17.10;;
16450;SDS011;12243;42.708;23.310;2023-03-23T04:58:19;20.20;;;15.50;;
16450;SDS011;12243;42.708;23.310;2023-03-23T05:01:14;23.53;;;18.37;;
16450;SDS011;12243;42.708;23.310;2023-03-23T05:04:01;21.53;;;17.30;;
16450;SDS011;12243;42.708;23.310;2023-03-23T05:06:29;22.37;;;16.37;;
16450;SDS011;12243;42.708;23.310;2023-03-23T05:09:02;29.50;;;22.87;;
16450;SDS011;12243;42.708;23.310;2023-03-23T05:11:30;31.80;;;24.20;;
16450;SDS011;12243;42.708;23.310;2023-03-23T05:13:58;31.93;;;25.03;;
16450;SDS011;12243;42.708;23.310;2023-03-23T05:16:25;34.07;;;23.33;;
16450;SDS011;12243;42.708;23.310;2023-03-23T05:18:54;29.93;;;23.77;;
16450;SDS011;12243;42.708;23.310;2023-03-23T05:21:23;32.87;;;23.60;;
16450;SDS011;12243;42.708;23.310;2023-03-23T05:23:53;32.27;;;23.37;;
16450;SDS011;12243;42.708;23.310;2023-03-23T05:26:23;33.63;;;23.80;;
16450;SDS011;12243;42.708;23.310;2023-03-23T05:28:53;31.30;;;22.83;;
16450;SDS011;12243;42.708;23.310;2023-03-23T05:31:33;32.23;;;24.03;;
16450;SDS011;12243;42.708;23.310;2023-03-23T05:34:01;35.10;;;24.33;;
16450;SDS011;12243;42.708;23.310;2023-03-23T05:36:38;31.67;;;22.77;;
16450;SDS011;12243;42.708;23.310;2023-03-23T05:39:27;34.47;;;24.93;;
16450;SDS011;12243;42.708;23.310;2023-03-23T05:42:08;39.20;;;25.37;;
16450;SDS011;12243;42.708;23.310;2023-03-23T05:44:59;30.73;;;23.37;;
16450;SDS011;12243;42.708;23.310;2023-03-23T05:47:27;30.83;;;23.43;;
16450;SDS011;12243;42.708;23.310;2023-03-23T05:50:00;28.23;;;21.80;;
16450;SDS011;12243;42.708;23.310;2023-03-23T05:52:29;32.03;;;22.93;;
16450;SDS011;12243;42.708;23.310;2023-03-23T05:54:58;31.77;;;23.07;;
16450;SDS011;12243;42.708;23.310;2023-03-23T05:57:27;29.87;;;22.23;;
16450;SDS011;12243;42.708;23.310;2023-03-23T06:00:01;33.60;;;23.43;;
16450;SDS011;12243;42.708;23.310;2023-03-23T06:02:49;31.63;;;24.17;;
16450;SDS011;12243;42.708;23.310;2023-03-23T06:05:27;43.17;;;30.00;;
16450;SDS011;12243;42.708;23.310;2023-03-23T06:07:56;35.87;;;24.80;;
16450;SDS011;12243;42.708;23.310;2023-03-23T06:10:24;37.97;;;25.33;;
16450;SDS011;12243;42.708;23.310;2023-03-23T06:12:59;35.83;;;25.00;;
16450;SDS011;12243;42.708;23.310;2023-03-23T06:15:34;33.63;;;24.63;;
16450;SDS011;12243;42.708;23.310;2023-03-23T06:18:12;34.63;;;26.20;;
16450;SDS011;12243;42.708;23.310;2023-03-23T06:21:02;38.50;;;25.13;;
16450;SDS011;12243;42.708;23.310;2023-03-23T06:23:45;32.63;;;23.60;;
16450;SDS011;12243;42.708;23.310;2023-03-23T06:26:15;33.03;;;24.00;;
16450;SDS011;12243;42.708;23.310;2023-03-23T06:28:56;34.13;;;25.27;;
16450;SDS011;12243;42.708;23.310;2023-03-23T06:31:26;32.60;;;24.87;;
16450;SDS011;12243;42.708;23.310;2023-03-23T06:33:54;33.57;;;24.77;;
16450;SDS011;12243;42.708;23.310;2023-03-23T06:36:24;32.87;;;24.43;;
16450;SDS011;12243;42.708;23.310;2023-03-23T06:39:16;30.03;;;23.97;;
16450;SDS011;12243;42.708;23.310;2023-03-23T06:41:52;31.73;;;24.70;;
16450;SDS011;12243;42.708;23.310;2023-03-23T06:44:20;34.23;;;23.80;;
16450;SDS011;12243;42.708;23.310;2023-03-23T06:46:47;35.80;;;25.50;;
16450;SDS011;12243;42.708;23.310;2023-03-23T06:49:35;34.00;;;24.60;;
16450;SDS011;12243;42.708;23.310;2023-03-23T06:52:17;36.30;;;25.17;;
16450;SDS011;12243;42.708;23.310;2023-03-23T06:54:44;35.03;;;24.53;;
16450;SDS011;12243;42.708;23.310;2023-03-23T06:57:12;32.60;;;24.17;;
16450;SDS011;12243;42.708;23.310;2023-03-23T06:59:43;31.17;;;25.33;;
16450;SDS011;12243;42.708;23.310;2023-03-23T07:02:11;30.33;;;23.83;;
16450;SDS011;12243;42.708;23.310;2023-03-23T07:04:42;36.67;;;24.70;;
16450;SDS011;12243;42.708;23.310;2023-03-23T07:07:17;27.93;;;21.60;;
16450;SDS011;12243;42.708;23.310;2023-03-23T07:09:50;29.57;;;22.70;;
16450;SDS011;12243;42.708;23.310;2023-03-23T07:12:20;27.60;;;22.60;;
16450;SDS011;12243;42.708;23.310;2023-03-23T07:14:51;29.43;;;21.90;;
16450;SDS011;12243;42.708;23.310;2023-03-23T07:17:18;24.20;;;20.40;;
16450;SDS011;12243;42.708;23.310;2023-03-23T07:20:04;26.87;;;21.33;;
16450;SDS011;12243;42.708;23.310;2023-03-23T07:22:32;30.43;;;23.37;;
16450;SDS011;12243;42.708;23.310;2023-03-23T07:25:08;31.33;;;22.37;;
16450;SDS011;12243;42.708;23.310;2023-03-23T07:28:05;31.87;;;23.70;;
16450;SDS011;12243;42.708;23.310;2023-03-23T07:30:33;34.10;;;24.93;;
16450;SDS011;12243;42.708;23.310;2023-03-23T07:33:03;31.03;;;24.47;;
16450;SDS011;12243;42.708;23.310;2023-03-23T07:35:31;29.67;;;24.13;;
16450;SDS011;12243;42.708;23.310;2023-03-23T07:38:03;27.97;;;23.20;;
16450;SDS011;12243;42.708;23.310;2023-03-23T07:40:31;36.77;;;25.60;;
16450;SDS011;12243;42.708;23.310;2023-03-23T07:43:09;29.10;;;22.83;;
16450;SDS011;12243;42.708;23.310;2023-03-23T07:46:09;30.13;;;22.60;;
16450;SDS011;12243;42.708;23.310;2023-03-23T07:48:49;28.33;;;22.53;;
16450;SDS011;12243;42.708;23.310;2023-03-23T07:51:21;29.57;;;22.37;;
16450;SDS011;12243;42.708;23.310;2023-03-23T07:53:49;30.23;;;23.63;;
16450;SDS011;12243;42.708;23.310;2023-03-23T07:56:35;33.07;;;25.00;;
16450;SDS011;12243;42.708;23.310;2023-03-23T07:59:14;30.93;;;22.60;;
16450;SDS011;12243;42.708;23.310;2023-03-23T08:01:43;28.23;;;22.63;;
16450;SDS011;12243;42.708;23.310;2023-03-23T08:04:43;26.13;;;20.87;;
16450;SDS011;12243;42.708;23.310;2023-03-23T08:07:35;22.80;;;19.33;;
16450;SDS011;12243;42.708;23.310;2023-03-23T08:10:21;22.10;;;18.00;;
16450;SDS011;12243;42.708;23.310;2023-03-23T08:13:13;21.27;;;16.67;;
16450;SDS011;12243;42.708;23.310;2023-03-23T08:15:40;23.27;;;16.27;;
16450;SDS011;12243;42.708;23.310;2023-03-23T08:18:11;22.87;;;17.60;;
16450;SDS011;12243;42.708;23.310;2023-03-23T08:20:40;23.50;;;17.53;;
16450;SDS011;12243;42.708;23.310;2023-03-23T08:23:29;18.80;;;16.10;;
16450;SDS011;12243;42.708;23.310;2023-03-23T08:26:14;23.47;;;18.60;;
16450;SDS011;12243;42.708;23.310;2023-03-23T08:28:57;26.47;;;21.20;;
16450;SDS011;12243;42.708;23.310;2023-03-23T08:31:44;24.27;;;20.23;;
16450;SDS011;12243;42.708;23.310;2023-03-23T08:34:31;24.83;;;19.53;;
16450;SDS011;12243;42.708;23.310;2023-03-23T08:37:10;22.60;;;18.83;;
16450;SDS011;12243;42.708;23.310;2023-03-23T08:40:12;17.40;;;13.07;;
16450;SDS011;12243;42.708;23.310;2023-03-23T08:43:16;17.70;;;13.87;;
16450;SDS011;12243;42.708;23.310;2023-03-23T08:46:12;17.67;;;14.40;;
16450;SDS011;12243;42.708;23.310;2023-03-23T08:49:03;19.87;;;15.97;;
16450;SDS011;12243;42.708;23.310;2023-03-23T08:51:32;18.67;;;15.67;;
16450;SDS011;12243;42.708;23.310;2023-03-23T08:54:34;21.87;;;16.60;;
16450;SDS011;12243;42.708;23.310;2023-03-23T08:57:21;19.27;;;13.63;;
16450;SDS011;12243;42.708;23.310;2023-03-23T09:00:07;10.10;;;9.10;;
16450;SDS011;12243;42.708;23.310;2023-03-23T09:03:05;9.23;;;8.33;;
16450;SDS011;12243;42.708;23.310;2023-03-23T09:05:58;10.53;;;9.47;;
16450;SDS011;12243;42.708;23.310;2023-03-23T09:08:36;8.40;;;7.50;;
16450;SDS011;12243;42.708;23.310;2023-03-23T09:11:04;10.70;;;9.45;;
16450;SDS011;12243;42.708;23.310;2023-03-23T09:13:34;13.13;;;10.30;;
16450;SDS011;12243;42.708;23.310;2023-03-23T09:16:01;12.90;;;9.30;;
16450;SDS011;12243;42.708;23.310;2023-03-23T09:18:28;9.40;;;8.60;;
16450;SDS011;12243;42.708;23.310;2023-03-23T09:20:56;10.05;;;9.15;;
16450;SDS011;12243;42.708;23.310;2023-03-23T09:23:23;9.82;;;8.93;;
16450;SDS011;12243;42.708;23.310;2023-03-23T09:25:52;10.13;;;9.23;;
16450;SDS011;12243;42.708;23.310;2023-03-23T09:28:19;10.80;;;9.77;;
16450;SDS011;12243;42.708;23.310;2023-03-23T09:30:46;10.43;;;9.43;;
16450;SDS011;12243;42.708;23.310;2023-03-23T09:33:14;10.73;;;9.23;;
16450;SDS011;12243;42.708;23.310;2023-03-23T09:35:41;11.05;;;9.95;;
16450;SDS011;12243;42.708;23.310;2023-03-23T09:38:09;9.23;;;8.35;;
16450;SDS011;12243;42.708;23.310;2023-03-23T09:40:39;9.40;;;8.43;;
16450;SDS011;12243;42.708;23.310;2023-03-23T09:43:19;7.70;;;7.00;;
16450;SDS011;12243;42.708;23.310;2023-03-23T09:45:57;8.30;;;7.47;;
16450;SDS011;12243;42.708;23.310;2023-03-23T09:48:38;9.43;;;8.43;;
16450;SDS011;12243;42.708;23.310;2023-03-23T09:51:15;10.40;;;9.30;;
16450;SDS011;12243;42.708;23.310;2023-03-23T09:53:50;8.90;;;8.10;;
16450;SDS011;12243;42.708;23.310;2023-03-23T09:56:20;8.33;;;7.63;;
16450;SDS011;12243;42.708;23.310;2023-03-23T09:58:53;9.70;;;8.07;;
16450;SDS011;12243;42.708;23.310;2023-03-23T10:01:25;9.07;;;7.97;;
16450;SDS011;12243;42.708;23.310;2023-03-23T10:03:58;10.83;;;8.93;;
16450;SDS011;12243;42.708;23.310;2023-03-23T10:06:30;9.07;;;8.00;;
16450;SDS011;12243;42.708;23.310;2023-03-23T10:08:58;8.60;;;7.80;;
16450;SDS011;12243;42.708;23.310;2023-03-23T10:11:31;9.97;;;8.50;;
16450;SDS011;12243;42.708;23.310;2023-03-23T10:17:02;8.57;;;7.77;;
16450;SDS011;12243;42.708;23.310;2023-03-23T10:19:39;8.73;;;7.90;;
16450;SDS011;12243;42.708;23.310;2023-03-23T10:22:12;8.87;;;7.97;;
16450;SDS011;12243;42.708;23.310;2023-03-23T10:24:46;10.80;;;8.93;;
16450;SDS011;12243;42.708;23.310;2023-03-23T10:27:19;9.70;;;8.53;;
16450;SDS011;12243;42.708;23.310;2023-03-23T10:29:55;9.05;;;8.15;;
16450;SDS011;12243;42.708;23.310;2023-03-23T10:32:39;8.85;;;8.05;;
16450;SDS011;12243;42.708;23.310;2023-03-23T10:35:11;9.73;;;8.75;;
16450;SDS011;12243;42.708;23.310;2023-03-23T10:37:43;9.85;;;8.88;;
16450;SDS011;12243;42.708;23.310;2023-03-23T10:40:15;10.63;;;9.02;;
16450;SDS011;12243;42.708;23.310;2023-03-23T10:42:46;10.43;;;9.38;;
16450;SDS011;12243;42.708;23.310;2023-03-23T10:45:17;10.67;;;8.50;;
16450;SDS011;12243;42.708;23.310;2023-03-23T10:47:48;9.33;;;8.53;;
16450;SDS011;12243;42.708;23.310;2023-03-23T10:50:22;9.85;;;8.93;;
16450;SDS011;12243;42.708;23.310;2023-03-23T10:52:52;9.50;;;8.60;;
16450;SDS011;12243;42.708;23.310;2023-03-23T10:55:24;8.70;;;8.00;;
16450;SDS011;12243;42.708;23.310;2023-03-23T10:58:01;8.00;;;7.28;;
16450;SDS011;12243;42.708;23.310;2023-03-23T11:00:31;8.13;;;7.32;;
16450;SDS011;12243;42.708;23.310;2023-03-23T11:03:01;10.32;;;9.23;;
16450;SDS011;12243;42.708;23.310;2023-03-23T11:05:35;7.53;;;6.93;;
16450;SDS011;12243;42.708;23.310;2023-03-23T11:08:10;8.20;;;7.50;;
16450;SDS011;12243;42.708;23.310;2023-03-23T11:10:39;8.77;;;7.93;;
16450;SDS011;12243;42.708;23.310;2023-03-23T11:13:10;8.75;;;8.00;;
16450;SDS011;12243;42.708;23.310;2023-03-23T11:15:42;8.48;;;7.78;;
16450;SDS011;12243;42.708;23.310;2023-03-23T11:18:12;9.20;;;8.23;;
16450;SDS011;12243;42.708;23.310;2023-03-23T11:20:45;8.15;;;7.55;;
16450;SDS011;12243;42.708;23.310;2023-03-23T11:23:18;7.93;;;7.25;;
16450;SDS011;12243;42.708;23.310;2023-03-23T11:25:52;8.13;;;7.43;;
16450;SDS011;12243;42.708;23.310;2023-03-23T11:28:25;8.00;;;7.32;;
16450;SDS011;12243;42.708;23.310;2023-03-23T11:30:57;7.75;;;7.05;;
16450;SDS011;12243;42.708;23.310;2023-03-23T11:33:28;8.38;;;7.63;;
16450;SDS011;12243;42.708;23.310;2023-03-23T11:35:56;7.80;;;7.20;;
16450;SDS011;12243;42.708;23.310;2023-03-23T11:38:23;7.90;;;7.15;;
16450;SDS011;12243;42.708;23.310;2023-03-23T11:40:53;7.47;;;6.88;;
16450;SDS011;12243;42.708;23.310;2023-03-23T11:43:21;8.65;;;7.85;;
16450;SDS011;12243;42.708;23.310;2023-03-23T11:45:52;8.88;;;8.05;;
16450;SDS011;12243;42.708;23.310;2023-03-23T11:48:29;11.23;;;7.55;;
16450;SDS011;12243;42.708;23.310;2023-03-23T11:51:05;8.52;;;7.72;;
16450;SDS011;12243;42.708;23.310;2023-03-23T11:53:42;7.65;;;6.95;;
16450;SDS011;12243;42.708;23.310;2023-03-23T11:56:17;7.10;;;6.38;;
16450;SDS011;12243;42.708;23.310;2023-03-23T11:58:50;7.63;;;7.03;;
16450;SDS011;12243;42.708;23.310;2023-03-23T12:01:24;7.75;;;7.15;;
16450;SDS011;12243;42.708;23.310;2023-03-23T12:04:28;7.90;;;7.05;;
16450;SDS011;12243;42.708;23.310;2023-03-23T12:10:16;8.50;;;7.80;;
16450;SDS011;12243;42.708;23.310;2023-03-23T12:12:55;7.88;;;7.18;;
16450;SDS011;12243;42.708;23.310;2023-03-23T12:15:29;7.90;;;7.20;;
16450;SDS011;12243;42.708;23.310;2023-03-23T12:18:05;6.85;;;6.20;;
16450;SDS011;12243;42.708;23.310;2023-03-23T12:20:41;6.45;;;6.00;;
16450;SDS011;12243;42.708;23.310;2023-03-23T12:23:22;6.53;;;5.93;;
16450;SDS011;12243;42.708;23.310;2023-03-23T12:28:56;6.07;;;5.47;;
16450;SDS011;12243;42.708;23.310;2023-03-23T12:31:45;6.22;;;5.82;;
16450;SDS011;12243;42.708;23.310;2023-03-23T12:34:23;6.75;;;6.25;;
16450;SDS011;12243;42.708;23.310;2023-03-23T12:37:02;7.78;;;7.13;;
16450;SDS011;12243;42.708;23.310;2023-03-23T12:39:50;7.38;;;6.68;;
16450;SDS011;12243;42.708;23.310;2023-03-23T12:42:35;6.45;;;5.70;;
16450;SDS011;12243;42.708;23.310;2023-03-23T12:45:12;6.13;;;5.72;;
16450;SDS011;12243;42.708;23.310;2023-03-23T12:47:48;6.88;;;6.28;;
16450;SDS011;12243;42.708;23.310;2023-03-23T12:50:23;7.45;;;6.00;;
16450;SDS011;12243;42.708;23.310;2023-03-23T12:52:54;5.78;;;5.25;;
16450;SDS011;12243;42.708;23.310;2023-03-23T12:55:31;6.55;;;6.03;;
16450;SDS011;12243;42.708;23.310;2023-03-23T12:58:05;6.18;;;5.68;;
16450;SDS011;12243;42.708;23.310;2023-03-23T13:03:23;6.78;;;6.28;;
16450;SDS011;12243;42.708;23.310;2023-03-23T13:05:57;6.82;;;6.22;;
16450;SDS011;12243;42.708;23.310;2023-03-23T13:08:30;6.00;;;5.60;;
16450;SDS011;12243;42.708;23.310;2023-03-23T13:11:01;6.32;;;5.82;;
16450;SDS011;12243;42.708;23.310;2023-03-23T13:13:40;6.40;;;5.90;;
16450;SDS011;12243;42.708;23.310;2023-03-23T13:16:14;6.50;;;6.00;;
16450;SDS011;12243;42.708;23.310;2023-03-23T13:18:48;6.82;;;5.80;;
16450;SDS011;12243;42.708;23.310;2023-03-23T13:21:24;6.30;;;5.65;;
16450;SDS011;12243;42.708;23.310;2023-03-23T13:23:57;6.05;;;5.50;;
16450;SDS011;12243;42.708;23.310;2023-03-23T13:26:29;5.93;;;5.50;;
16450;SDS011;12243;42.708;23.310;2023-03-23T13:28:57;6.53;;;5.93;;
16450;SDS011;12243;42.708;23.310;2023-03-23T13:31:27;6.28;;;5.82;;
16450;SDS011;12243;42.708;23.310;2023-03-23T13:34:00;6.63;;;6.03;;
16450;SDS011;12243;42.708;23.310;2023-03-23T13:36:33;7.43;;;6.65;;
16450;SDS011;12243;42.708;23.310;2023-03-23T13:39:04;7.15;;;6.55;;
16450;SDS011;12243;42.708;23.310;2023-03-23T13:41:47;7.13;;;6.10;;
16450;SDS011;12243;42.708;23.310;2023-03-23T13:44:16;7.82;;;7.22;;
16450;SDS011;12243;42.708;23.310;2023-03-23T13:46:56;8.32;;;6.43;;
16450;SDS011;12243;42.708;23.310;2023-03-23T13:49:31;6.40;;;5.90;;
16450;SDS011;12243;42.708;23.310;2023-03-23T13:52:17;6.25;;;5.80;;
16450;SDS011;12243;42.708;23.310;2023-03-23T13:54:49;6.72;;;6.03;;
16450;SDS011;12243;42.708;23.310;2023-03-23T13:57:24;6.75;;;6.03;;
16450;SDS011;12243;42.708;23.310;2023-03-23T14:00:08;6.80;;;6.20;;
16450;SDS011;12243;42.708;23.310;2023-03-23T14:02:52;6.78;;;6.07;;
16450;SDS011;12243;42.708;23.310;2023-03-23T14:05:30;6.63;;;6.10;;
16450;SDS011;12243;42.708;23.310;2023-03-23T14:08:02;6.85;;;6.15;;
16450;SDS011;12243;42.708;23.310;2023-03-23T14:10:36;6.38;;;5.80;;
16450;SDS011;12243;42.708;23.310;2023-03-23T14:13:09;5.97;;;5.50;;
16450;SDS011;12243;42.708;23.310;2023-03-23T14:15:43;7.15;;;5.85;;
16450;SDS011;12243;42.708;23.310;2023-03-23T14:18:13;6.43;;;5.93;;
16450;SDS011;12243;42.708;23.310;2023-03-23T14:20:42;7.75;;;7.05;;
16450;SDS011;12243;42.708;23.310;2023-03-23T14:23:18;7.32;;;6.68;;
16450;SDS011;12243;42.708;23.310;2023-03-23T14:25:54;5.97;;;5.47;;
16450;SDS011;12243;42.708;23.310;2023-03-23T14:28:23;6.72;;;6.13;;
16450;SDS011;12243;42.708;23.310;2023-03-23T14:30:53;6.40;;;5.80;;
16450;SDS011;12243;42.708;23.310;2023-03-23T14:33:22;6.07;;;5.63;;
16450;SDS011;12243;42.708;23.310;2023-03-23T14:35:53;6.10;;;5.60;;
16450;SDS011;12243;42.708;23.310;2023-03-23T14:38:24;6.55;;;5.95;;
16450;SDS011;12243;42.708;23.310;2023-03-23T14:41:00;9.73;;;6.38;;
16450;SDS011;12243;42.708;23.310;2023-03-23T14:43:29;5.90;;;5.50;;
16450;SDS011;12243;42.708;23.310;2023-03-23T14:46:00;6.68;;;5.93;;
16450;SDS011;12243;42.708;23.310;2023-03-23T14:48:31;6.97;;;6.28;;
16450;SDS011;12243;42.708;23.310;2023-03-23T14:50:59;8.45;;;6.28;;
16450;SDS011;12243;42.708;23.310;2023-03-23T14:53:33;6.78;;;6.03;;
16450;SDS011;12243;42.708;23.310;2023-03-23T14:56:03;5.90;;;5.50;;
16450;SDS011;12243;42.708;23.310;2023-03-23T14:58:37;6.55;;;6.05;;
16450;SDS011;12243;42.708;23.310;2023-03-23T15:01:06;6.65;;;5.63;;
16450;SDS011;12243;42.708;23.310;2023-03-23T15:03:37;6.55;;;6.03;;
16450;SDS011;12243;42.708;23.310;2023-03-23T15:06:07;7.13;;;6.18;;
16450;SDS011;12243;42.708;23.310;2023-03-23T15:08:40;7.20;;;6.47;;
16450;SDS011;12243;42.708;23.310;2023-03-23T15:11:11;6.65;;;6.15;;
16450;SDS011;12243;42.708;23.310;2023-03-23T15:13:42;7.38;;;6.65;;
16450;SDS011;12243;42.708;23.310;2023-03-23T15:16:12;6.95;;;6.35;;